Time,TemperatureF,DewpointF,PressureIn,WindDirection,WindDirectionDegrees,WindSpeedMPH,WindSpeedGustMPH,Humidity,HourlyPrecipIn,Conditions,Clouds,dailyrainin,SolarRadiationWatts/m^2,SoftwareType,DateUTC
2013-08-11 00:04:00,54.4,51.5,30.08,West,267,0.0,0.0,90,0.00,,BKN,0.00,0.00,VWS V14.01,2013-08-11 05:04:00,
2013-08-11 00:10:00,54.2,51.3,30.08,West,267,0.0,0.0,90,0.00,,BKN,0.00,0.00,VWS V14.01,2013-08-11 05:10:00,
2013-08-11 00:16:00,54.0,50.8,30.08,West,267,0.0,0.0,89,0.00,,BKN,0.00,0.00,VWS V14.01,2013-08-11 05:16:00,
2013-08-11 00:21:00,53.8,50.9,30.08,West,267,0.0,0.0,90,0.00,,BKN,0.00,0.00,VWS V14.01,2013-08-11 05:21:00,
2013-08-11 00:26:00,53.7,50.8,30.08,West,267,0.0,0.0,90,0.00,,BKN,0.00,0.00,VWS V14.01,2013-08-11 05:26:00,
2013-08-11 00:32:00,53.6,50.7,30.08,West,267,0.0,0.0,90,0.00,,BKN,0.00,0.00,VWS V14.01,2013-08-11 05:32:00,
2013-08-11 00:37:00,53.5,50.6,30.08,West,267,0.0,0.0,90,0.00,,BKN,0.00,0.00,VWS V14.01,2013-08-11 05:37:00,
2013-08-11 00:44:00,53.4,50.5,30.08,West,267,0.0,0.0,90,0.00,,BKN,0.00,0.00,VWS V14.01,2013-08-11 05:44:00,
2013-08-11 00:49:00,53.3,50.5,30.08,West,267,0.0,0.0,90,0.00,,BKN,0.00,0.00,VWS V14.01,2013-08-11 05:49:00,
2013-08-11 00:54:00,53.3,50.7,30.08,West,267,0.0,0.0,91,0.00,,BKN,0.00,0.00,VWS V14.01,2013-08-11 05:54:00,
2013-08-11 01:00:00,53.2,50.3,30.08,West,267,0.0,0.0,90,0.00,,BKN,0.00,0.00,VWS V14.01,2013-08-11 06:00:00,
2013-08-11 01:06:00,53.0,50.2,30.08,West,267,0.0,0.0,90,0.00,,BKN,0.00,0.00,VWS V14.01,2013-08-11 06:06:00,
2013-08-11 01:11:00,52.9,50.0,30.08,West,267,0.0,0.0,90,0.00,,BKN,0.00,0.00,VWS V14.01,2013-08-11 06:11:00,
2013-08-11 01:16:00,52.8,50.2,30.08,West,267,0.0,0.0,91,0.00,,BKN,0.00,0.00,VWS V14.01,2013-08-11 06:16:00,
2013-08-11 01:22:00,52.7,50.2,30.08,West,267,0.0,0.0,91,0.00,,BKN,0.00,0.00,VWS V14.01,2013-08-11 06:22:00,
2013-08-11 01:27:00,52.6,50.0,30.08,West,267,0.0,0.0,91,0.00,,BKN,0.00,0.00,VWS V14.01,2013-08-11 06:27:00,
2013-08-11 01:32:00,52.6,50.0,30.08,West,267,0.0,0.0,91,0.00,,BKN,0.00,0.00,VWS V14.01,2013-08-11 06:32:00,
2013-08-11 01:38:00,52.5,50.0,30.08,West,267,0.0,0.0,91,0.00,,BKN,0.00,0.00,VWS V14.01,2013-08-11 06:38:00,
2013-08-11 01:44:00,52.4,49.8,30.08,West,267,0.0,0.0,91,0.00,,BKN,0.00,0.00,VWS V14.01,2013-08-11 06:44:00,
2013-08-11 01:49:00,52.2,49.4,30.08,West,267,0.0,0.0,90,0.00,,BKN,0.00,0.00,VWS V14.01,2013-08-11 06:49:00,
2013-08-11 01:55:00,51.9,49.4,30.08,West,267,0.0,0.0,91,0.00,,BKN,0.00,0.00,VWS V14.01,2013-08-11 06:55:00,
2013-08-11 02:00:00,51.8,49.3,30.08,West,267,0.0,0.0,91,0.00,,BKN,0.00,0.00,VWS V14.01,2013-08-11 07:00:00,
2013-08-11 02:05:00,51.8,49.3,30.08,West,267,0.0,0.0,91,0.00,,BKN,0.00,0.00,VWS V14.01,2013-08-11 07:05:00,
2013-08-11 02:10:00,51.8,49.3,30.09,West,267,0.0,0.0,91,0.00,,BKN,0.00,0.00,VWS V14.01,2013-08-11 07:10:00,
2013-08-11 02:16:00,51.9,49.4,30.08,West,267,0.0,0.0,91,0.00,,BKN,0.00,0.00,VWS V14.01,2013-08-11 07:16:00,
2013-08-11 02:21:00,52.0,49.8,30.09,West,267,0.0,0.0,92,0.00,,BKN,0.00,0.00,VWS V14.01,2013-08-11 07:21:00,
2013-08-11 02:26:00,51.8,49.3,30.09,West,267,0.0,0.0,91,0.00,,BKN,0.00,0.00,VWS V14.01,2013-08-11 07:26:00,
2013-08-11 02:32:00,51.5,49.0,30.09,West,267,0.0,0.0,91,0.00,,BKN,0.00,0.00,VWS V14.01,2013-08-11 07:32:00,
2013-08-11 02:39:00,51.4,48.9,30.09,West,267,0.0,0.0,91,0.00,,BKN,0.00,0.00,VWS V14.01,2013-08-11 07:39:00,
2013-08-11 02:46:00,51.4,48.9,30.09,West,267,0.0,0.0,91,0.00,,BKN,0.00,0.00,VWS V14.01,2013-08-11 07:46:00,
2013-08-11 02:51:00,51.4,48.9,30.09,West,267,0.0,0.0,91,0.00,,BKN,0.00,0.00,VWS V14.01,2013-08-11 07:51:00,
2013-08-11 02:56:00,51.4,49.2,30.09,West,267,0.0,0.0,92,0.00,,BKN,0.00,0.00,VWS V14.01,2013-08-11 07:56:00,
2013-08-11 03:01:00,51.4,49.2,30.09,West,267,0.0,0.0,92,0.00,,BKN,0.00,0.00,VWS V14.01,2013-08-11 08:01:00,
2013-08-11 03:06:00,51.4,49.2,30.09,West,267,0.0,0.0,92,0.00,,BKN,0.00,0.00,VWS V14.01,2013-08-11 08:06:00,
2013-08-11 03:11:00,51.3,48.8,30.09,West,267,0.0,0.0,91,0.00,,BKN,0.00,0.00,VWS V14.01,2013-08-11 08:11:00,
2013-08-11 03:16:00,51.3,48.8,30.09,West,267,0.0,0.0,91,0.00,,BKN,0.00,0.00,VWS V14.01,2013-08-11 08:16:00,
2013-08-11 03:24:00,51.2,49.0,30.09,West,267,0.0,0.0,92,0.00,,BKN,0.00,0.00,VWS V14.01,2013-08-11 08:24:00,
2013-08-11 03:30:00,51.2,49.0,30.09,West,267,0.0,0.0,92,0.00,,BKN,0.00,0.00,VWS V14.01,2013-08-11 08:30:00,
2013-08-11 03:35:00,51.2,49.0,30.10,West,267,0.0,0.0,92,0.00,,BKN,0.00,0.00,VWS V14.01,2013-08-11 08:35:00,
2013-08-11 03:40:00,51.2,49.0,30.09,West,267,0.0,0.0,92,0.00,,BKN,0.00,0.00,VWS V14.01,2013-08-11 08:40:00,
2013-08-11 03:45:00,51.2,49.0,30.09,West,267,0.0,0.0,92,0.00,,BKN,0.00,0.00,VWS V14.01,2013-08-11 08:45:00,
2013-08-11 03:51:00,51.2,49.0,30.09,West,267,0.0,0.0,92,0.00,,BKN,0.00,0.00,VWS V14.01,2013-08-11 08:51:00,
2013-08-11 03:56:00,51.2,49.0,30.09,West,267,0.0,0.0,92,0.00,,BKN,0.00,0.00,VWS V14.01,2013-08-11 08:56:00,
2013-08-11 04:01:00,51.1,48.9,30.09,West,267,0.0,0.0,92,0.00,,BKN,0.00,0.00,VWS V14.01,2013-08-11 09:01:00,
2013-08-11 04:06:00,51.0,48.8,30.09,West,267,0.0,0.0,92,0.00,,BKN,0.00,0.00,VWS V14.01,2013-08-11 09:06:00,
2013-08-11 04:11:00,50.8,48.6,30.08,West,267,0.0,0.0,92,0.00,,BKN,0.00,0.00,VWS V14.01,2013-08-11 09:11:00,
2013-08-11 04:16:00,50.7,48.5,30.08,West,267,0.0,0.0,92,0.00,,BKN,0.00,0.00,VWS V14.01,2013-08-11 09:16:00,
2013-08-11 04:22:00,50.5,48.3,30.08,West,267,0.0,0.0,92,0.00,,BKN,0.00,0.00,VWS V14.01,2013-08-11 09:22:00,
2013-08-11 04:27:00,50.5,48.3,30.08,West,267,0.0,0.0,92,0.00,,BKN,0.00,0.00,VWS V14.01,2013-08-11 09:27:00,
2013-08-11 04:33:00,50.4,48.2,30.09,West,267,0.0,0.0,92,0.00,,BKN,0.00,0.00,VWS V14.01,2013-08-11 09:33:00,
2013-08-11 04:38:00,50.2,48.0,30.09,West,267,0.0,0.0,92,0.00,,BKN,0.00,0.00,VWS V14.01,2013-08-11 09:38:00,
2013-08-11 04:45:00,49.7,47.2,30.08,West,267,0.0,0.0,91,0.00,,BKN,0.00,0.00,VWS V14.01,2013-08-11 09:45:00,
2013-08-11 04:51:00,49.5,47.0,30.09,West,267,0.0,0.0,91,0.00,,BKN,0.00,0.00,VWS V14.01,2013-08-11 09:51:00,
2013-08-11 04:56:00,49.5,47.3,30.08,West,267,0.0,0.0,92,0.00,,BKN,0.00,0.00,VWS V14.01,2013-08-11 09:56:00,
2013-08-11 05:01:00,49.6,47.4,30.08,West,267,0.0,0.0,92,0.00,,BKN,0.00,0.00,VWS V14.01,2013-08-11 10:01:00,
2013-08-11 05:07:00,49.6,47.4,30.08,West,267,0.0,0.0,92,0.00,,BKN,0.00,0.00,VWS V14.01,2013-08-11 10:07:00,
2013-08-11 05:12:00,49.7,47.5,30.08,West,267,0.0,0.0,92,0.00,,BKN,0.00,0.00,VWS V14.01,2013-08-11 10:12:00,
2013-08-11 05:18:00,49.8,47.6,30.08,West,267,0.0,0.0,92,0.00,,BKN,0.00,0.00,VWS V14.01,2013-08-11 10:18:00,
2013-08-11 05:23:00,49.9,47.7,30.08,West,267,0.0,0.0,92,0.00,,BKN,0.00,0.00,VWS V14.01,2013-08-11 10:23:00,
2013-08-11 05:28:00,49.8,47.6,30.08,West,267,0.0,0.0,92,0.00,,BKN,0.00,0.00,VWS V14.01,2013-08-11 10:28:00,
2013-08-11 05:34:00,49.8,47.6,30.08,West,267,0.0,0.0,92,0.00,,BKN,0.00,0.00,VWS V14.01,2013-08-11 10:34:00,
2013-08-11 05:39:00,49.7,47.5,30.08,West,267,0.0,0.0,92,0.00,,BKN,0.00,0.00,VWS V14.01,2013-08-11 10:39:00,
2013-08-11 05:45:00,49.6,47.4,30.08,West,267,0.0,0.0,92,0.00,,BKN,0.00,0.00,VWS V14.01,2013-08-11 10:45:00,
2013-08-11 05:51:00,49.6,47.4,30.08,West,267,0.0,0.0,92,0.00,,BKN,0.00,0.00,VWS V14.01,2013-08-11 10:51:00,
2013-08-11 05:56:00,49.5,47.3,30.08,West,267,0.0,0.0,92,0.00,,BKN,0.00,0.00,VWS V14.01,2013-08-11 10:56:00,
2013-08-11 06:01:00,49.5,47.3,30.08,West,267,0.0,0.0,92,0.00,,BKN,0.00,0.00,VWS V14.01,2013-08-11 11:01:00,
2013-08-11 06:07:00,49.5,47.3,30.08,West,267,0.0,0.0,92,0.00,,BKN,0.00,5.00,VWS V14.01,2013-08-11 11:07:00,
2013-08-11 06:12:00,49.5,47.3,30.09,West,267,0.0,0.0,92,0.00,,BKN,0.00,7.00,VWS V14.01,2013-08-11 11:12:00,
2013-08-11 06:18:00,49.6,47.4,30.08,West,267,0.0,0.0,92,0.00,,BKN,0.00,11.00,VWS V14.01,2013-08-11 11:18:00,
2013-08-11 06:23:00,49.6,47.4,30.08,West,267,0.0,0.0,92,0.00,,BKN,0.00,12.00,VWS V14.01,2013-08-11 11:23:00,
2013-08-11 06:29:00,49.6,47.4,30.08,West,267,0.0,0.0,92,0.00,,BKN,0.00,16.00,VWS V14.01,2013-08-11 11:29:00,
2013-08-11 06:34:00,49.6,47.4,30.08,West,267,0.0,0.0,92,0.00,,BKN,0.00,18.00,VWS V14.01,2013-08-11 11:34:00,
2013-08-11 06:39:00,49.5,47.3,30.08,West,267,0.0,0.0,92,0.00,,BKN,0.00,18.00,VWS V14.01,2013-08-11 11:39:00,
2013-08-11 06:44:00,49.4,47.2,30.08,West,267,0.0,0.0,92,0.00,,BKN,0.00,21.00,VWS V14.01,2013-08-11 11:44:00,
2013-08-11 06:50:00,49.5,47.6,30.08,West,267,0.0,0.0,93,0.00,,BKN,0.00,23.00,VWS V14.01,2013-08-11 11:50:00,
2013-08-11 06:55:00,49.6,47.7,30.08,West,267,0.0,0.0,93,0.00,,BKN,0.00,26.00,VWS V14.01,2013-08-11 11:55:00,
2013-08-11 07:01:00,49.7,47.8,30.08,West,267,0.0,0.0,93,0.00,,BKN,0.00,26.00,VWS V14.01,2013-08-11 12:01:00,
2013-08-11 07:06:00,49.8,47.9,30.08,West,267,0.0,0.0,93,0.00,,BKN,0.00,30.00,VWS V14.01,2013-08-11 12:06:00,
2013-08-11 07:12:00,49.9,48.0,30.08,West,267,0.0,0.0,93,0.00,,BKN,0.00,39.00,VWS V14.01,2013-08-11 12:12:00,
2013-08-11 07:18:00,50.1,48.2,30.08,West,267,0.0,0.0,93,0.00,,BKN,0.00,51.00,VWS V14.01,2013-08-11 12:18:00,
2013-08-11 07:24:00,50.4,48.5,30.08,West,267,0.0,0.0,93,0.00,,BKN,0.00,63.00,VWS V14.01,2013-08-11 12:24:00,
2013-08-11 07:30:00,50.7,48.8,30.08,West,267,0.0,0.0,93,0.00,,BKN,0.00,70.00,VWS V14.01,2013-08-11 12:30:00,
2013-08-11 07:35:00,51.1,49.4,30.08,West,267,0.0,0.0,94,0.00,,BKN,0.00,76.00,VWS V14.01,2013-08-11 12:35:00,
2013-08-11 07:41:00,51.9,50.2,30.08,West,267,0.0,0.0,94,0.00,,BKN,0.00,77.00,VWS V14.01,2013-08-11 12:41:00,
2013-08-11 07:46:00,52.5,50.8,30.08,West,267,0.0,0.0,94,0.00,,BKN,0.00,70.00,VWS V14.01,2013-08-11 12:46:00,
2013-08-11 07:52:00,52.9,51.2,30.07,West,267,0.0,0.0,94,0.00,,BKN,0.00,70.00,VWS V14.01,2013-08-11 12:52:00,
2013-08-11 07:57:00,53.1,51.4,30.07,West,267,0.0,0.0,94,0.00,,BKN,0.00,104.00,VWS V14.01,2013-08-11 12:57:00,
2013-08-11 08:02:00,53.1,51.4,30.07,West,267,0.0,0.0,94,0.00,,BKN,0.00,127.00,VWS V14.01,2013-08-11 13:02:00,
2013-08-11 08:08:00,53.3,51.6,30.08,West,267,0.0,0.0,94,0.00,,BKN,0.00,104.00,VWS V14.01,2013-08-11 13:08:00,
2013-08-11 08:14:00,53.6,51.9,30.08,West,267,0.0,0.0,94,0.00,,BKN,0.00,105.00,VWS V14.01,2013-08-11 13:14:00,
2013-08-11 08:19:00,54.0,52.3,30.08,West,267,0.0,0.0,94,0.00,,BKN,0.00,120.00,VWS V14.01,2013-08-11 13:19:00,
2013-08-11 08:24:00,54.5,52.8,30.08,West,267,0.0,0.0,94,0.00,,BKN,0.00,162.00,VWS V14.01,2013-08-11 13:24:00,
2013-08-11 08:29:00,54.8,53.1,30.08,West,267,0.0,0.0,94,0.00,,BKN,0.00,128.00,VWS V14.01,2013-08-11 13:29:00,
2013-08-11 08:34:00,55.0,53.3,30.08,West,267,0.0,0.0,94,0.00,,BKN,0.00,153.00,VWS V14.01,2013-08-11 13:34:00,
2013-08-11 08:40:00,55.4,53.7,30.07,West,267,0.0,0.0,94,0.00,,BKN,0.00,155.00,VWS V14.01,2013-08-11 13:40:00,
2013-08-11 08:45:00,55.6,53.9,30.08,West,267,0.0,1.0,94,0.00,,BKN,0.00,158.00,VWS V14.01,2013-08-11 13:45:00,
2013-08-11 08:51:00,55.8,54.1,30.08,West,267,0.0,0.0,94,0.00,,BKN,0.00,142.00,VWS V14.01,2013-08-11 13:51:00,
2013-08-11 08:56:00,56.0,54.3,30.07,West,267,0.0,0.0,94,0.00,,BKN,0.00,116.00,VWS V14.01,2013-08-11 13:56:00,
2013-08-11 09:01:00,56.0,54.3,30.07,West,267,0.0,0.0,94,0.00,,BKN,0.00,158.00,VWS V14.01,2013-08-11 14:01:00,
2013-08-11 09:06:00,56.2,54.5,30.07,West,267,0.0,0.0,94,0.00,,BKN,0.00,258.00,VWS V14.01,2013-08-11 14:06:00,
2013-08-11 09:11:00,56.4,54.7,30.08,West,267,0.0,0.0,94,0.00,,BKN,0.00,174.00,VWS V14.01,2013-08-11 14:11:00,
2013-08-11 09:16:00,56.7,55.0,30.08,West,267,0.0,0.0,94,0.00,,BKN,0.00,174.00,VWS V14.01,2013-08-11 14:16:00,
2013-08-11 09:21:00,57.2,55.5,30.08,West,267,0.0,0.0,94,0.00,,BKN,0.00,656.00,VWS V14.01,2013-08-11 14:21:00,
2013-08-11 09:28:00,57.7,56.0,30.07,West,267,0.0,0.0,94,0.00,,BKN,0.00,339.00,VWS V14.01,2013-08-11 14:28:00,
2013-08-11 09:33:00,58.1,56.4,30.07,West,267,0.0,0.0,94,0.00,,BKN,0.00,239.00,VWS V14.01,2013-08-11 14:33:00,
2013-08-11 09:39:00,58.7,57.0,30.07,West,267,0.0,0.0,94,0.00,,BKN,0.00,292.00,VWS V14.01,2013-08-11 14:39:00,
2013-08-11 09:44:00,59.0,57.3,30.07,West,267,0.0,0.0,94,0.00,,BKN,0.00,265.00,VWS V14.01,2013-08-11 14:44:00,
2013-08-11 09:50:00,59.5,57.5,30.07,West,267,0.0,0.0,93,0.00,,BKN,0.00,410.00,VWS V14.01,2013-08-11 14:50:00,
2013-08-11 09:56:00,60.2,57.9,30.07,West,267,0.0,0.0,92,0.00,,BKN,0.00,288.00,VWS V14.01,2013-08-11 14:56:00,
2013-08-11 10:01:00,60.7,57.8,30.07,West,267,0.0,0.0,90,0.00,,BKN,0.00,404.00,VWS V14.01,2013-08-11 15:01:00,
2013-08-11 10:07:00,61.4,57.8,30.07,West,267,0.0,0.0,88,0.00,,BKN,0.00,258.00,VWS V14.01,2013-08-11 15:07:00,
2013-08-11 10:12:00,61.8,57.6,30.07,West,267,0.0,0.0,86,0.00,,BKN,0.00,174.00,VWS V14.01,2013-08-11 15:12:00,
2013-08-11 10:17:00,62.3,57.4,30.07,West,267,0.0,0.0,84,0.00,,BKN,0.00,188.00,VWS V14.01,2013-08-11 15:17:00,
2013-08-11 10:23:00,62.7,57.5,30.07,West,267,0.0,0.0,83,0.00,,BKN,0.00,176.00,VWS V14.01,2013-08-11 15:23:00,
2013-08-11 10:28:00,63.0,57.4,30.07,West,267,0.0,0.0,82,0.00,,BKN,0.00,172.00,VWS V14.01,2013-08-11 15:28:00,
2013-08-11 10:33:00,63.4,57.8,30.07,West,267,0.0,0.0,82,0.00,,BKN,0.00,323.00,VWS V14.01,2013-08-11 15:33:00,
2013-08-11 10:38:00,63.7,57.8,30.07,West,267,0.0,0.0,81,0.00,,BKN,0.00,513.00,VWS V14.01,2013-08-11 15:38:00,
2013-08-11 10:45:00,64.4,57.8,30.08,WSW,254,0.0,0.0,79,0.00,,BKN,0.00,193.00,VWS V14.01,2013-08-11 15:45:00,
2013-08-11 10:50:00,64.8,57.4,30.08,WSW,250,0.0,0.0,77,0.00,,BKN,0.00,749.00,VWS V14.01,2013-08-11 15:50:00,
2013-08-11 10:55:00,65.4,57.3,30.08,WSW,250,0.0,0.0,75,0.00,,BKN,0.00,740.00,VWS V14.01,2013-08-11 15:55:00,
2013-08-11 11:01:00,65.9,57.4,30.08,WSW,244,0.0,3.0,74,0.00,,BKN,0.00,747.00,VWS V14.01,2013-08-11 16:01:00,
2013-08-11 11:06:00,66.4,57.1,30.07,WSW,248,2.0,2.0,72,0.00,,BKN,0.00,759.00,VWS V14.01,2013-08-11 16:06:00,
2013-08-11 11:11:00,67.0,56.1,30.07,WSW,250,0.0,3.0,68,0.00,,BKN,0.00,768.00,VWS V14.01,2013-08-11 16:11:00,
2013-08-11 11:16:00,67.5,56.2,30.07,WSW,248,1.0,5.0,67,0.00,,BKN,0.00,782.00,VWS V14.01,2013-08-11 16:16:00,
2013-08-11 11:22:00,68.0,56.2,30.07,WSW,251,0.0,0.0,66,0.00,,BKN,0.00,795.00,VWS V14.01,2013-08-11 16:22:00,
2013-08-11 11:28:00,68.5,57.1,30.07,SW,227,0.0,1.0,67,0.00,,BKN,0.00,809.00,VWS V14.01,2013-08-11 16:28:00,
2013-08-11 11:33:00,69.0,56.8,30.07,WSW,245,0.0,6.0,65,0.00,,BKN,0.00,856.00,VWS V14.01,2013-08-11 16:33:00,
2013-08-11 11:38:00,69.2,55.6,30.06,WSW,250,3.0,3.0,62,0.00,,BKN,0.00,116.00,VWS V14.01,2013-08-11 16:38:00,
2013-08-11 11:44:00,69.2,55.6,30.06,SW,236,0.0,6.0,62,0.00,,BKN,0.00,879.00,VWS V14.01,2013-08-11 16:44:00,
2013-08-11 11:51:00,69.5,55.0,30.06,West,269,3.0,8.0,60,0.00,,BKN,0.00,900.00,VWS V14.01,2013-08-11 16:51:00,
2013-08-11 11:56:00,69.5,55.0,30.06,West,268,0.0,5.0,60,0.00,,BKN,0.00,169.00,VWS V14.01,2013-08-11 16:56:00,
2013-08-11 12:01:00,69.4,54.9,30.06,WSW,241,0.0,6.0,60,0.00,,BKN,0.00,207.00,VWS V14.01,2013-08-11 17:01:00,
2013-08-11 12:06:00,69.3,56.2,30.06,WSW,241,0.0,0.0,63,0.00,,BKN,0.00,1037.00,VWS V14.01,2013-08-11 17:06:00,
2013-08-11 12:12:00,69.6,55.6,30.06,WSW,241,0.0,0.0,61,0.00,,BKN,0.00,1085.00,VWS V14.01,2013-08-11 17:12:00,
2013-08-11 12:17:00,70.3,56.7,30.06,WSW,239,6.0,6.0,62,0.00,,BKN,0.00,1051.00,VWS V14.01,2013-08-11 17:17:00,
2013-08-11 12:22:00,71.0,56.0,30.06,WSW,240,3.0,4.0,59,0.00,,BKN,0.00,1090.00,VWS V14.01,2013-08-11 17:22:00,
2013-08-11 12:29:00,71.5,56.9,30.06,SW,227,0.0,5.0,60,0.00,,BKN,0.00,1016.00,VWS V14.01,2013-08-11 17:29:00,
2013-08-11 12:34:00,71.9,55.9,30.05,SW,233,4.0,5.0,57,0.00,,BKN,0.00,1011.00,VWS V14.01,2013-08-11 17:34:00,
2013-08-11 12:39:00,72.2,55.7,30.05,WSW,239,0.0,4.0,56,0.00,,BKN,0.00,1046.00,VWS V14.01,2013-08-11 17:39:00,
2013-08-11 12:45:00,72.2,56.6,30.05,West,275,3.0,7.0,58,0.00,,BKN,0.00,229.00,VWS V14.01,2013-08-11 17:45:00,
2013-08-11 12:50:00,71.8,55.8,30.05,West,275,2.0,5.0,57,0.00,,BKN,0.00,229.00,VWS V14.01,2013-08-11 17:50:00,
2013-08-11 12:55:00,71.8,55.3,30.05,NW,304,0.0,5.0,56,0.00,,BKN,0.00,1007.00,VWS V14.01,2013-08-11 17:55:00,
2013-08-11 13:00:00,71.9,55.9,30.05,WSW,245,5.0,6.0,57,0.00,,BKN,0.00,981.00,VWS V14.01,2013-08-11 18:00:00,
2013-08-11 13:06:00,72.1,56.5,30.05,WSW,244,6.0,8.0,58,0.00,,BKN,0.00,972.00,VWS V14.01,2013-08-11 18:06:00,
2013-08-11 13:12:00,72.1,54.6,30.05,SW,225,0.0,0.0,54,0.00,,BKN,0.00,940.00,VWS V14.01,2013-08-11 18:12:00,
2013-08-11 13:19:00,72.5,54.9,30.04,SW,227,0.0,2.0,54,0.00,,BKN,0.00,979.00,VWS V14.01,2013-08-11 18:19:00,
2013-08-11 13:25:00,72.9,54.3,30.04,SW,236,0.0,0.0,52,0.00,,BKN,0.00,988.00,VWS V14.01,2013-08-11 18:25:00,
2013-08-11 13:30:00,73.1,54.5,30.04,NW,323,0.0,5.0,52,0.00,,BKN,0.00,766.00,VWS V14.01,2013-08-11 18:30:00,
2013-08-11 13:35:00,73.0,55.9,30.04,NW,312,0.0,0.0,55,0.00,,BKN,0.00,223.00,VWS V14.01,2013-08-11 18:35:00,
2013-08-11 13:41:00,73.0,56.9,30.04,West,268,0.0,0.0,57,0.00,,BKN,0.00,898.00,VWS V14.01,2013-08-11 18:41:00,
2013-08-11 13:46:00,73.3,56.7,30.04,West,263,3.0,5.0,56,0.00,,BKN,0.00,1013.00,VWS V14.01,2013-08-11 18:46:00,
2013-08-11 13:51:00,73.4,55.2,30.04,SW,225,0.0,7.0,53,0.00,,BKN,0.00,979.00,VWS V14.01,2013-08-11 18:51:00,
2013-08-11 13:56:00,73.6,56.5,30.04,WSW,243,0.0,6.0,55,0.00,,BKN,0.00,984.00,VWS V14.01,2013-08-11 18:56:00,
2013-08-11 14:01:00,73.7,56.5,30.03,WSW,239,0.0,0.0,55,0.00,,BKN,0.00,1011.00,VWS V14.01,2013-08-11 19:01:00,
2013-08-11 14:07:00,74.1,55.4,30.03,WSW,238,1.0,4.0,52,0.00,,BKN,0.00,1027.00,VWS V14.01,2013-08-11 19:07:00,
2013-08-11 14:12:00,74.0,55.3,30.03,West,272,3.0,7.0,52,0.00,,BKN,0.00,214.00,VWS V14.01,2013-08-11 19:12:00,
2013-08-11 14:18:00,73.6,56.0,30.03,West,275,0.0,4.0,54,0.00,,BKN,0.00,997.00,VWS V14.01,2013-08-11 19:18:00,
2013-08-11 14:24:00,73.3,55.2,30.03,SW,227,0.0,0.0,53,0.00,,BKN,0.00,251.00,VWS V14.01,2013-08-11 19:24:00,
2013-08-11 14:29:00,73.4,56.3,30.03,WSW,241,3.0,9.0,55,0.00,,BKN,0.00,1030.00,VWS V14.01,2013-08-11 19:29:00,
2013-08-11 14:36:00,73.4,58.2,30.02,SW,232,0.0,0.0,59,0.00,,BKN,0.00,204.00,VWS V14.01,2013-08-11 19:36:00,
2013-08-11 14:41:00,73.6,57.0,30.03,WSW,242,0.0,0.0,56,0.00,,BKN,0.00,1023.00,VWS V14.01,2013-08-11 19:41:00,
2013-08-11 14:46:00,73.9,57.2,30.02,WSW,242,0.0,0.0,56,0.00,,BKN,0.00,988.00,VWS V14.01,2013-08-11 19:46:00,
2013-08-11 14:51:00,74.3,56.6,30.02,WSW,242,0.0,0.0,54,0.00,,BKN,0.00,991.00,VWS V14.01,2013-08-11 19:51:00,
2013-08-11 14:56:00,74.6,55.3,30.02,West,264,3.0,7.0,51,0.00,,BKN,0.00,946.00,VWS V14.01,2013-08-11 19:56:00,
2013-08-11 15:04:00,74.7,57.5,30.02,WSW,246,5.0,10.0,55,0.00,,BKN,0.00,904.00,VWS V14.01,2013-08-11 20:04:00,
2013-08-11 15:11:00,74.5,56.8,30.02,WSW,241,6.0,9.0,54,0.00,,BKN,0.00,863.00,VWS V14.01,2013-08-11 20:11:00,
2013-08-11 15:17:00,74.2,55.5,30.02,WSW,245,8.0,8.0,52,0.00,,BKN,0.00,169.00,VWS V14.01,2013-08-11 20:17:00,
2013-08-11 15:22:00,73.9,56.7,30.02,WSW,251,0.0,0.0,55,0.00,,BKN,0.00,925.00,VWS V14.01,2013-08-11 20:22:00,
2013-08-11 15:27:00,73.9,56.2,30.02,West,271,0.0,4.0,54,0.00,,BKN,0.00,956.00,VWS V14.01,2013-08-11 20:27:00,
2013-08-11 15:33:00,74.1,55.9,30.02,WSW,248,5.0,6.0,53,0.00,,BKN,0.00,946.00,VWS V14.01,2013-08-11 20:33:00,
2013-08-11 15:38:00,74.4,56.7,30.02,WSW,254,2.0,5.0,54,0.00,,BKN,0.00,925.00,VWS V14.01,2013-08-11 20:38:00,
2013-08-11 15:43:00,74.3,57.6,30.02,WSW,256,5.0,6.0,56,0.00,,BKN,0.00,236.00,VWS V14.01,2013-08-11 20:43:00,
2013-08-11 15:48:00,74.1,55.9,30.02,WSW,241,0.0,5.0,53,0.00,,BKN,0.00,860.00,VWS V14.01,2013-08-11 20:48:00,
2013-08-11 15:54:00,73.9,56.2,30.02,WSW,241,0.0,0.0,54,0.00,,BKN,0.00,174.00,VWS V14.01,2013-08-11 20:54:00,
2013-08-11 15:59:00,73.8,56.6,30.02,WSW,240,2.0,5.0,55,0.00,,BKN,0.00,197.00,VWS V14.01,2013-08-11 20:59:00,
2013-08-11 16:05:00,73.7,56.0,30.02,WSW,241,0.0,0.0,54,0.00,,BKN,0.00,816.00,VWS V14.01,2013-08-11 21:05:00,
2013-08-11 16:10:00,73.9,55.7,30.02,West,265,4.0,9.0,53,0.00,,BKN,0.00,814.00,VWS V14.01,2013-08-11 21:10:00,
2013-08-11 16:16:00,74.1,55.9,30.02,West,261,3.0,7.0,53,0.00,,BKN,0.00,130.00,VWS V14.01,2013-08-11 21:16:00,
2013-08-11 16:21:00,73.9,56.7,30.02,WSW,254,0.0,4.0,55,0.00,,BKN,0.00,128.00,VWS V14.01,2013-08-11 21:21:00,
2013-08-11 16:26:00,73.8,57.1,30.01,WSW,255,0.0,2.0,56,0.00,,BKN,0.00,153.00,VWS V14.01,2013-08-11 21:26:00,
2013-08-11 16:31:00,73.9,57.7,30.01,WSW,254,0.0,0.0,57,0.00,,BKN,0.00,779.00,VWS V14.01,2013-08-11 21:31:00,
2013-08-11 16:36:00,74.2,59.0,30.01,WSW,255,0.0,0.0,59,0.00,,BKN,0.00,178.00,VWS V14.01,2013-08-11 21:36:00,
2013-08-11 16:41:00,74.2,56.5,30.01,West,261,0.0,0.0,54,0.00,,BKN,0.00,142.00,VWS V14.01,2013-08-11 21:41:00,
2013-08-11 16:47:00,74.1,56.4,30.01,West,261,4.0,4.0,54,0.00,,BKN,0.00,236.00,VWS V14.01,2013-08-11 21:47:00,
2013-08-11 16:52:00,74.3,57.1,30.01,West,261,0.0,0.0,55,0.00,,BKN,0.00,712.00,VWS V14.01,2013-08-11 21:52:00,
2013-08-11 16:57:00,74.5,56.3,30.01,West,261,0.0,0.0,53,0.00,,BKN,0.00,679.00,VWS V14.01,2013-08-11 21:57:00,
2013-08-11 17:03:00,74.9,55.6,30.01,West,261,0.0,0.0,51,0.00,,BKN,0.00,633.00,VWS V14.01,2013-08-11 22:03:00,
2013-08-11 17:09:00,75.7,57.9,30.01,SW,236,6.0,7.0,54,0.00,,BKN,0.00,603.00,VWS V14.01,2013-08-11 22:09:00,
2013-08-11 17:14:00,75.9,56.5,30.01,WNW,284,0.0,6.0,51,0.00,,BKN,0.00,559.00,VWS V14.01,2013-08-11 22:14:00,
2013-08-11 17:20:00,75.9,57.6,30.00,West,279,0.0,3.0,53,0.00,,BKN,0.00,543.00,VWS V14.01,2013-08-11 22:20:00,
2013-08-11 17:25:00,75.9,56.5,30.00,West,263,0.0,5.0,51,0.00,,BKN,0.00,526.00,VWS V14.01,2013-08-11 22:25:00,
2013-08-11 17:31:00,75.8,56.4,30.00,WNW,290,0.0,3.0,51,0.00,,BKN,0.00,508.00,VWS V14.01,2013-08-11 22:31:00,
2013-08-11 17:36:00,75.8,57.5,30.00,WSW,257,0.0,5.0,53,0.00,,BKN,0.00,445.00,VWS V14.01,2013-08-11 22:36:00,
2013-08-11 17:41:00,75.7,57.9,30.00,West,261,2.0,4.0,54,0.00,,BKN,0.00,483.00,VWS V14.01,2013-08-11 22:41:00,
2013-08-11 17:46:00,75.5,56.1,30.00,NNW,329,0.0,5.0,51,0.00,,BKN,0.00,540.00,VWS V14.01,2013-08-11 22:46:00,
2013-08-11 17:51:00,75.3,56.5,30.00,West,275,6.0,8.0,52,0.00,,BKN,0.00,179.00,VWS V14.01,2013-08-11 22:51:00,
2013-08-11 17:57:00,75.1,56.3,30.00,West,275,4.0,4.0,52,0.00,,BKN,0.00,403.00,VWS V14.01,2013-08-11 22:57:00,
2013-08-11 18:02:00,75.1,55.8,30.00,West,268,3.0,3.0,51,0.00,,BKN,0.00,457.00,VWS V14.01,2013-08-11 23:02:00,
2013-08-11 18:07:00,75.3,58.0,30.00,West,269,2.0,3.0,55,0.00,,BKN,0.00,434.00,VWS V14.01,2013-08-11 23:07:00,
2013-08-11 18:12:00,75.3,57.0,30.00,West,269,0.0,0.0,53,0.00,,BKN,0.00,244.00,VWS V14.01,2013-08-11 23:12:00,
2013-08-11 18:18:00,75.1,57.3,29.99,WSW,250,0.0,0.0,54,0.00,,BKN,0.00,399.00,VWS V14.01,2013-08-11 23:18:00,
2013-08-11 18:24:00,75.0,57.2,29.99,West,259,5.0,5.0,54,0.00,,BKN,0.00,408.00,VWS V14.01,2013-08-11 23:24:00,
2013-08-11 18:29:00,74.9,58.7,29.99,West,263,0.0,3.0,57,0.00,,BKN,0.00,239.00,VWS V14.01,2013-08-11 23:29:00,
2013-08-11 18:34:00,75.0,59.7,29.99,West,263,0.0,0.0,59,0.00,,BKN,0.00,380.00,VWS V14.01,2013-08-11 23:34:00,
2013-08-11 18:39:00,75.1,60.3,29.99,West,263,0.0,0.0,60,0.00,,BKN,0.00,330.00,VWS V14.01,2013-08-11 23:39:00,
2013-08-11 18:44:00,75.1,59.8,29.99,West,263,0.0,0.0,59,0.00,,BKN,0.00,107.00,VWS V14.01,2013-08-11 23:44:00,
2013-08-11 18:50:00,74.9,59.6,29.99,West,263,0.0,0.0,59,0.00,,BKN,0.00,113.00,VWS V14.01,2013-08-11 23:50:00,
2013-08-11 18:55:00,74.5,59.2,29.99,West,263,0.0,0.0,59,0.00,,BKN,0.00,49.00,VWS V14.01,2013-08-11 23:55:00,
2013-08-11 19:01:00,73.9,58.7,29.99,West,263,0.0,0.0,59,0.00,,BKN,0.00,69.00,VWS V14.01,2013-08-12 00:01:00,
2013-08-11 19:06:00,73.4,59.2,29.99,West,263,0.0,0.0,61,0.00,,BKN,0.00,90.00,VWS V14.01,2013-08-12 00:06:00,
2013-08-11 19:11:00,72.8,58.6,29.98,West,263,0.0,0.0,61,0.00,,BKN,0.00,42.00,VWS V14.01,2013-08-12 00:11:00,
2013-08-11 19:16:00,72.2,58.5,29.98,West,263,0.0,0.0,62,0.00,,BKN,0.00,33.00,VWS V14.01,2013-08-12 00:16:00,
2013-08-11 19:21:00,71.7,58.9,29.99,West,263,0.0,0.0,64,0.00,,BKN,0.00,33.00,VWS V14.01,2013-08-12 00:21:00,
2013-08-11 19:26:00,71.3,58.5,29.99,West,263,0.0,0.0,64,0.00,,BKN,0.00,28.00,VWS V14.01,2013-08-12 00:26:00,
2013-08-11 19:32:00,70.7,57.9,29.99,West,263,0.0,0.0,64,0.00,,BKN,0.00,28.00,VWS V14.01,2013-08-12 00:32:00,
2013-08-11 19:37:00,70.2,58.3,29.99,West,263,0.0,0.0,66,0.00,,BKN,0.00,26.00,VWS V14.01,2013-08-12 00:37:00,
2013-08-11 19:42:00,69.8,58.4,29.98,West,263,0.0,0.0,67,0.00,,BKN,0.00,28.00,VWS V14.01,2013-08-12 00:42:00,
2013-08-11 19:48:00,69.4,58.8,29.98,West,263,0.0,0.0,69,0.00,,BKN,0.00,25.00,VWS V14.01,2013-08-12 00:48:00,
2013-08-11 19:53:00,69.0,58.8,29.98,West,263,0.0,0.0,70,0.00,,BKN,0.00,23.00,VWS V14.01,2013-08-12 00:53:00,
2013-08-11 19:58:00,68.6,59.2,29.98,West,263,0.0,0.0,72,0.00,,BKN,0.00,18.00,VWS V14.01,2013-08-12 00:58:00,
2013-08-11 20:04:00,68.3,59.3,29.98,West,264,0.0,0.0,73,0.00,,BKN,0.00,18.00,VWS V14.01,2013-08-12 01:04:00,
2013-08-11 20:09:00,68.0,59.4,29.98,West,263,0.0,0.0,74,0.00,,BKN,0.00,11.00,VWS V14.01,2013-08-12 01:09:00,
2013-08-11 20:14:00,67.7,59.1,29.98,West,263,0.0,0.0,74,0.00,,BKN,0.00,7.00,VWS V14.01,2013-08-12 01:14:00,
2013-08-11 20:20:00,67.3,58.7,29.98,West,263,0.0,0.0,74,0.00,,BKN,0.00,0.00,VWS V14.01,2013-08-12 01:20:00,
2013-08-11 20:25:00,67.0,58.8,29.98,West,263,0.0,0.0,75,0.00,,BKN,0.00,0.00,VWS V14.01,2013-08-12 01:25:00,
2013-08-11 20:30:00,66.7,58.9,29.98,West,263,0.0,0.0,76,0.00,,BKN,0.00,0.00,VWS V14.01,2013-08-12 01:30:00,
2013-08-11 20:35:00,66.2,58.8,29.98,West,263,0.0,0.0,77,0.00,,BKN,0.00,0.00,VWS V14.01,2013-08-12 01:35:00,
2013-08-11 20:41:00,65.9,58.9,29.98,West,263,0.0,0.0,78,0.00,,BKN,0.00,0.00,VWS V14.01,2013-08-12 01:41:00,
2013-08-11 20:46:00,65.5,58.5,29.99,West,263,0.0,0.0,78,0.00,,BKN,0.00,0.00,VWS V14.01,2013-08-12 01:46:00,
2013-08-11 20:51:00,65.2,58.5,29.99,West,263,0.0,0.0,79,0.00,,BKN,0.00,0.00,VWS V14.01,2013-08-12 01:51:00,
2013-08-11 20:56:00,64.9,58.2,29.99,West,263,0.0,0.0,79,0.00,,BKN,0.00,0.00,VWS V14.01,2013-08-12 01:56:00,
2013-08-11 21:01:00,64.5,57.8,29.99,West,263,0.0,0.0,79,0.00,,BKN,0.00,0.00,VWS V14.01,2013-08-12 02:01:00,
2013-08-11 21:06:00,64.2,57.9,29.99,West,263,0.0,0.0,80,0.00,,BKN,0.00,0.00,VWS V14.01,2013-08-12 02:06:00,
2013-08-11 21:11:00,63.8,57.9,29.99,West,263,0.0,0.0,81,0.00,,BKN,0.00,0.00,VWS V14.01,2013-08-12 02:11:00,
2013-08-11 21:16:00,63.3,57.4,29.99,West,263,0.0,0.0,81,0.00,,BKN,0.00,0.00,VWS V14.01,2013-08-12 02:16:00,
2013-08-11 21:22:00,62.9,57.3,29.99,West,263,0.0,0.0,82,0.00,,BKN,0.00,0.00,VWS V14.01,2013-08-12 02:22:00,
2013-08-11 21:27:00,62.6,57.4,29.99,West,263,0.0,0.0,83,0.00,,BKN,0.00,0.00,VWS V14.01,2013-08-12 02:27:00,
2013-08-11 21:32:00,62.3,57.1,29.99,West,263,0.0,0.0,83,0.00,,BKN,0.00,0.00,VWS V14.01,2013-08-12 02:32:00,
2013-08-11 21:38:00,62.1,56.9,29.99,West,263,0.0,0.0,83,0.00,,BKN,0.00,0.00,VWS V14.01,2013-08-12 02:38:00,
2013-08-11 21:43:00,61.8,56.9,29.99,West,263,0.0,0.0,84,0.00,,BKN,0.00,0.00,VWS V14.01,2013-08-12 02:43:00,
2013-08-11 21:49:00,61.6,56.7,29.99,West,263,0.0,0.0,84,0.00,,BKN,0.00,0.00,VWS V14.01,2013-08-12 02:49:00,
2013-08-11 21:54:00,61.4,56.9,29.99,West,263,0.0,0.0,85,0.00,,BKN,0.00,0.00,VWS V14.01,2013-08-12 02:54:00,
2013-08-11 21:59:00,61.2,56.7,29.99,West,263,0.0,0.0,85,0.00,,BKN,0.00,0.00,VWS V14.01,2013-08-12 02:59:00,
2013-08-11 22:04:00,60.9,56.4,29.99,West,263,0.0,0.0,85,0.00,,BKN,0.00,0.00,VWS V14.01,2013-08-12 03:04:00,
2013-08-11 22:10:00,60.7,56.5,29.99,West,263,0.0,0.0,86,0.00,,BKN,0.00,0.00,VWS V14.01,2013-08-12 03:10:00,
2013-08-11 22:15:00,60.4,56.2,29.99,West,263,0.0,0.0,86,0.00,,BKN,0.00,0.00,VWS V14.01,2013-08-12 03:15:00,
2013-08-11 22:21:00,60.3,56.1,29.99,West,263,0.0,0.0,86,0.00,,BKN,0.00,0.00,VWS V14.01,2013-08-12 03:21:00,
2013-08-11 22:26:00,60.1,56.2,29.99,West,263,0.0,0.0,87,0.00,,BKN,0.00,0.00,VWS V14.01,2013-08-12 03:26:00,
2013-08-11 22:32:00,59.9,56.0,29.99,West,263,0.0,0.0,87,0.00,,BKN,0.00,0.00,VWS V14.01,2013-08-12 03:32:00,
2013-08-11 22:37:00,59.7,55.8,29.99,West,263,0.0,0.0,87,0.00,,BKN,0.00,0.00,VWS V14.01,2013-08-12 03:37:00,
2013-08-11 22:46:00,59.5,55.6,29.99,West,263,0.0,0.0,87,0.00,,BKN,0.00,0.00,VWS V14.01,2013-08-12 03:46:00,
2013-08-11 22:51:00,59.4,55.8,29.99,West,263,0.0,0.0,88,0.00,,BKN,0.00,0.00,VWS V14.01,2013-08-12 03:51:00,
2013-08-11 22:56:00,59.3,55.8,29.99,West,263,0.0,0.0,88,0.00,,BKN,0.00,0.00,VWS V14.01,2013-08-12 03:56:00,
2013-08-11 23:01:00,59.1,55.5,29.99,West,263,0.0,0.0,88,0.00,,BKN,0.00,0.00,VWS V14.01,2013-08-12 04:01:00,
2013-08-11 23:03:00,59.0,55.5,30.00,West,263,0.0,0.0,88,0.00,,BKN,0.00,0.00,VWS V14.01,2013-08-12 04:03:00,
2013-08-11 23:05:00,59.0,55.5,30.00,West,263,0.0,0.0,88,0.00,,BKN,0.00,0.00,VWS V14.01,2013-08-12 04:05:00,
2013-08-11 23:10:00,59.0,55.5,30.00,West,263,0.0,0.0,88,0.00,,BKN,0.00,0.00,VWS V14.01,2013-08-12 04:10:00,
2013-08-11 23:15:00,59.0,55.5,30.00,West,263,0.0,1.0,88,0.00,,BKN,0.00,0.00,VWS V14.01,2013-08-12 04:15:00,
2013-08-11 23:20:00,58.8,55.3,30.00,West,263,0.0,0.0,88,0.00,,BKN,0.00,0.00,VWS V14.01,2013-08-12 04:20:00,
2013-08-11 23:25:00,58.7,55.5,30.00,West,263,0.0,0.0,89,0.00,,BKN,0.00,0.00,VWS V14.01,2013-08-12 04:25:00,
2013-08-11 23:30:00,58.6,55.4,29.99,West,263,0.0,0.0,89,0.00,,BKN,0.00,0.00,VWS V14.01,2013-08-12 04:30:00,
2013-08-11 23:35:00,58.5,55.3,29.99,West,263,0.0,0.0,89,0.00,,BKN,0.00,0.00,VWS V14.01,2013-08-12 04:35:00,
2013-08-11 23:40:00,58.4,55.2,29.99,West,263,0.0,0.0,89,0.00,,BKN,0.00,0.00,VWS V14.01,2013-08-12 04:40:00,
2013-08-11 23:45:00,58.3,55.1,29.99,West,263,0.0,0.0,89,0.00,,BKN,0.00,0.00,VWS V14.01,2013-08-12 04:45:00,
2013-08-11 23:51:00,58.2,55.0,29.99,West,263,0.0,0.0,89,0.00,,BKN,0.00,0.00,VWS V14.01,2013-08-12 04:51:00,
2013-08-11 23:56:00,58.1,54.9,29.99,West,263,0.0,0.0,89,0.00,,BKN,0.00,0.00,VWS V14.01,2013-08-12 04:56:00,